Nova Veneza, Brazil
Current Conditions -  °F | °C
As of 6:20 PM on Wednesday 28 Jan 2015 (Local Time) from SBCM Reporting Station
Broken Clouds Broken Clouds  
Wind Chill: 79°   Ceiling: 10000
Heat Index: 82°   Visibility: 6mi
Dew Point: 73°   Wind: 3mph
Humidity: 83%   Direction: 10°N
Pressure: 29.71"   Gusts: NA
Location:  28.64°S, 49.5°W
Report Text: SBCM 282020Z 01003KT 9999 SCT030 BKN100 26/23 Q1006 RETS
Loading
Personal Weather Stations






























Interactive Weather Map New forecast layout! Learn more

10-Day Weather Forecast

Advertisements
Track Severe Weather on mobile